createdAt,value
2018-07-10T00:00:42.306Z,17.50
2018-07-10T00:03:23.352Z,17.50
2018-07-10T00:06:22.031Z,17.40
2018-07-10T00:11:05.225Z,17.40
2018-07-10T00:13:34.706Z,17.30
2018-07-10T00:16:15.441Z,17.20
2018-07-10T00:18:45.506Z,17.20
2018-07-10T00:21:15.257Z,17.20
2018-07-10T00:23:44.263Z,17.20
2018-07-10T00:26:13.122Z,17.20
2018-07-10T00:28:42.565Z,17.20
2018-07-10T00:33:40.885Z,17.30
2018-07-10T00:36:13.769Z,17.30
2018-07-10T00:38:54.087Z,17.40
2018-07-10T00:41:25.860Z,17.40
2018-07-10T00:43:55.749Z,17.40
2018-07-10T00:46:34.988Z,17.50
2018-07-10T00:49:04.306Z,17.50
2018-07-10T00:51:41.331Z,17.60
2018-07-10T00:54:10.939Z,17.60
2018-07-10T00:56:41.507Z,17.60
2018-07-10T00:59:10.457Z,17.70
2018-07-10T01:01:41.978Z,17.70
2018-07-10T01:09:17.472Z,17.70
2018-07-10T01:11:46.327Z,17.70
2018-07-10T01:14:14.769Z,17.70
2018-07-10T01:16:45.569Z,17.60
2018-07-10T01:19:16.058Z,17.60
2018-07-10T01:21:45.733Z,17.60
2018-07-10T01:24:17.256Z,17.60
2018-07-10T01:26:47.915Z,17.50
2018-07-10T01:29:21.796Z,17.50
2018-07-10T01:31:55.037Z,17.50
2018-07-10T01:34:24.317Z,17.50
2018-07-10T01:36:54.683Z,17.50
2018-07-10T01:39:24.123Z,17.50
2018-07-10T01:44:21.713Z,17.60
2018-07-10T01:46:56.313Z,17.60
2018-07-10T01:49:25.785Z,17.70
2018-07-10T01:51:54.132Z,17.70
2018-07-10T01:54:23.528Z,17.70
2018-07-10T01:56:52.416Z,17.70
2018-07-10T01:59:24.295Z,17.60
2018-07-10T02:01:54.119Z,17.50
2018-07-10T02:04:23.980Z,17.40
2018-07-10T02:06:53.789Z,17.40
2018-07-10T02:11:52.590Z,17.40
2018-07-10T02:14:22.274Z,17.30
2018-07-10T02:16:51.900Z,17.30
2018-07-10T02:22:14.396Z,17.30
2018-07-10T02:24:49.660Z,17.20
2018-07-10T02:27:18.050Z,17.20
2018-07-10T02:29:46.812Z,17.20
2018-07-10T02:32:15.851Z,17.20
2018-07-10T02:34:44.631Z,17.10
2018-07-10T02:37:13.203Z,17.10
2018-07-10T02:39:42.083Z,17.00
2018-07-10T02:42:11.099Z,16.90
2018-07-10T02:44:40.992Z,16.90
2018-07-10T02:47:10.381Z,16.80
2018-07-10T02:49:39.679Z,16.80
2018-07-10T02:52:08.981Z,16.70
2018-07-10T02:54:39.722Z,16.80
2018-07-10T02:57:10.271Z,16.80
2018-07-10T02:59:41.249Z,16.90
2018-07-10T03:02:18.510Z,16.90
2018-07-10T03:04:48.384Z,16.90
2018-07-10T03:07:18.874Z,16.90
2018-07-10T03:09:48.212Z,16.90
2018-07-10T03:12:17.215Z,16.80
2018-07-10T03:14:45.789Z,16.80
2018-07-10T03:17:17.689Z,16.80
2018-07-10T03:19:47.183Z,16.80
2018-07-10T03:22:16.665Z,16.80
2018-07-10T03:25:00.192Z,16.80
2018-07-10T03:27:29.664Z,16.80
2018-07-10T03:30:02.479Z,16.80
2018-07-10T03:32:32.195Z,16.70
2018-07-10T03:35:10.915Z,16.70
2018-07-10T03:37:55.414Z,16.70
2018-07-10T03:40:26.710Z,16.70
2018-07-10T03:42:55.386Z,16.60
2018-07-10T03:45:25.986Z,16.60
2018-07-10T03:47:54.743Z,16.60
2018-07-10T03:50:23.929Z,16.50
2018-07-10T03:52:54.196Z,16.50
2018-07-10T03:55:23.151Z,16.50
2018-07-10T03:57:54.703Z,16.50
2018-07-10T04:00:25.470Z,16.40
2018-07-10T04:02:54.050Z,16.50
2018-07-10T04:05:42.039Z,16.50
2018-07-10T04:08:12.127Z,16.50
2018-07-10T04:10:43.869Z,16.50
2018-07-10T04:13:20.114Z,16.50
2018-07-10T04:15:49.853Z,16.50
2018-07-10T04:18:26.478Z,16.60
2018-07-10T04:21:13.108Z,16.60
2018-07-10T04:23:44.996Z,16.60
2018-07-10T04:29:04.895Z,16.70
2018-07-10T04:31:40.455Z,16.70
2018-07-10T04:34:11.789Z,16.70
2018-07-10T07:17:38.993Z,19.20
2018-07-10T07:20:18.982Z,19.30
2018-07-10T07:25:29.489Z,19.40
2018-07-10T07:28:00.941Z,19.40
2018-07-10T07:30:31.184Z,19.50
2018-07-10T07:33:11.448Z,19.60
2018-07-10T07:35:43.963Z,19.70
2018-07-10T07:38:19.700Z,19.80
2018-07-10T07:40:56.175Z,20.00
2018-07-10T07:48:56.152Z,20.50
2018-07-10T07:51:32.169Z,20.70
2018-07-10T07:54:02.716Z,20.90
2018-07-10T07:56:31.567Z,21.00
2018-07-10T07:59:05.143Z,21.10
2018-07-10T08:01:34.407Z,21.10
2018-07-10T08:04:05.356Z,21.10
2018-07-10T08:06:40.084Z,21.20
2018-07-10T08:09:09.334Z,21.20
2018-07-10T08:11:37.963Z,21.20
2018-07-10T08:14:06.963Z,21.30
2018-07-10T08:16:35.717Z,21.40
2018-07-10T08:19:05.747Z,21.50
2018-07-10T08:21:34.438Z,21.70
2018-07-10T08:24:03.607Z,21.70
2018-07-10T08:26:37.074Z,21.80
2018-07-10T08:31:33.655Z,21.60
2018-07-10T08:34:02.876Z,21.70
2018-07-10T08:36:31.764Z,21.80
2018-07-10T08:39:00.846Z,21.80
2018-07-10T08:41:38.378Z,21.80
2018-07-10T08:44:06.792Z,21.70
2018-07-10T08:46:35.660Z,21.70
2018-07-10T08:49:04.879Z,21.70
2018-07-10T08:51:34.098Z,21.70
2018-07-10T08:54:02.697Z,21.80
2018-07-10T08:56:31.438Z,21.90
2018-07-10T08:59:00.566Z,22.10
2018-07-10T09:01:34.503Z,22.30
2018-07-10T09:04:04.193Z,22.60
2018-07-10T09:06:34.819Z,22.90
2018-07-10T09:09:09.119Z,23.20
2018-07-10T09:11:42.148Z,23.20
2018-07-10T09:14:10.946Z,23.20
2018-07-10T09:16:40.014Z,23.20
2018-07-10T09:19:09.843Z,23.20
2018-07-10T09:21:38.471Z,23.20
2018-07-10T09:24:07.326Z,23.30
2018-07-10T09:26:37.447Z,23.40
2018-07-10T09:31:52.288Z,23.50
2018-07-10T09:37:00.200Z,23.50
2018-07-10T09:39:34.475Z,23.30
2018-07-10T09:42:03.974Z,23.10
2018-07-10T09:44:37.180Z,23.00
2018-07-10T09:49:45.145Z,22.90
2018-07-10T09:52:18.754Z,23.00
2018-07-10T09:54:58.580Z,23.10
2018-07-10T09:57:28.425Z,23.20
2018-07-10T09:59:56.992Z,23.10
2018-07-10T10:02:30.962Z,23.00
2018-07-10T10:05:07.518Z,23.00
2018-07-10T10:07:37.088Z,23.00
2018-07-10T10:10:07.023Z,23.20
2018-07-10T10:12:42.063Z,23.20
2018-07-10T10:15:16.861Z,23.20
2018-07-10T10:17:49.390Z,23.30
2018-07-10T10:20:19.820Z,23.40
2018-07-10T10:22:48.486Z,23.40
2018-07-10T10:25:18.304Z,23.30
2018-07-10T10:27:51.290Z,23.20
2018-07-10T10:30:20.332Z,23.00
2018-07-10T10:32:48.591Z,22.90
2018-07-10T10:35:36.294Z,22.80
2018-07-10T10:38:05.677Z,22.70
2018-07-10T10:40:36.724Z,22.60
2018-07-10T10:43:08.075Z,22.50
2018-07-10T10:45:38.107Z,22.50
2018-07-10T10:48:07.521Z,22.40
2018-07-10T10:50:39.280Z,22.30
2018-07-10T10:53:08.640Z,22.30
2018-07-10T10:55:47.613Z,22.30
2018-07-10T10:58:22.300Z,22.30
2018-07-10T11:00:52.043Z,22.30
2018-07-10T11:03:20.995Z,22.30
2018-07-10T11:05:49.601Z,22.30
2018-07-10T11:08:20.304Z,22.20
2018-07-10T11:10:49.726Z,22.20
2018-07-10T11:13:22.442Z,22.20
2018-07-10T11:15:55.983Z,22.10
2018-07-10T11:18:32.680Z,22.10
2018-07-10T11:21:05.992Z,22.20
2018-07-10T11:23:59.093Z,22.20
2018-07-10T11:26:35.081Z,22.20
2018-07-10T11:29:07.347Z,22.20
2018-07-10T11:31:36.134Z,22.20
2018-07-10T11:34:05.368Z,22.10
2018-07-10T11:37:20.061Z,22.20
2018-07-10T11:39:53.292Z,22.20
2018-07-10T11:42:30.051Z,22.20
2018-07-10T11:44:59.613Z,22.10
2018-07-10T11:47:30.664Z,22.10
2018-07-10T11:50:02.469Z,22.10
2018-07-10T11:52:38.345Z,22.10
2018-07-10T11:55:08.815Z,22.10
2018-07-10T11:57:37.820Z,22.00
2018-07-10T12:00:06.594Z,21.90
2018-07-10T12:05:22.837Z,21.80
2018-07-10T12:07:57.146Z,21.80
2018-07-10T12:10:30.318Z,21.80
2018-07-10T12:13:00.853Z,21.90
2018-07-10T12:15:31.029Z,21.90
2018-07-10T12:18:02.143Z,21.90
2018-07-10T12:20:46.054Z,21.90
2018-07-10T12:23:23.728Z,22.00
2018-07-10T12:25:52.823Z,22.10
2018-07-10T12:28:21.864Z,22.20
2018-07-10T12:30:51.771Z,22.40
2018-07-10T12:33:22.283Z,22.50
2018-07-10T12:35:57.386Z,22.60
2018-07-10T12:38:29.253Z,22.70
2018-07-10T12:40:59.901Z,22.80
2018-07-10T12:43:29.804Z,22.90
2018-07-10T12:46:05.082Z,23.00
2018-07-10T12:48:34.469Z,23.20
2018-07-10T12:51:05.088Z,23.40
2018-07-10T12:53:34.783Z,23.60
2018-07-10T12:56:09.798Z,23.70
2018-07-10T12:58:42.108Z,23.70
2018-07-10T13:01:11.368Z,23.70
2018-07-10T13:03:40.134Z,23.60
2018-07-10T13:06:11.728Z,23.50
2018-07-10T13:08:41.805Z,23.40
2018-07-10T13:11:14.171Z,23.30
2018-07-10T13:13:48.205Z,23.20
2018-07-10T13:16:29.254Z,23.20
2018-07-10T13:19:09.311Z,23.20
2018-07-10T13:21:38.548Z,23.10
2018-07-10T13:24:10.224Z,23.10
2018-07-10T13:29:24.807Z,23.10
2018-07-10T13:31:53.973Z,23.00
2018-07-10T13:37:15.475Z,23.20
2018-07-10T13:39:50.686Z,23.30
2018-07-10T13:42:19.881Z,23.30
2018-07-10T13:44:50.420Z,23.30
2018-07-10T13:47:19.375Z,23.20
2018-07-10T13:49:53.074Z,23.00
2018-07-10T13:52:22.701Z,22.90
2018-07-10T13:54:57.162Z,22.80
2018-07-10T13:58:23.129Z,22.60
2018-07-10T14:01:10.240Z,22.60
2018-07-10T14:03:44.542Z,22.40
2018-07-10T14:09:45.805Z,22.10
2018-07-10T14:12:28.542Z,21.90
2018-07-10T14:18:02.301Z,21.70
2018-07-10T14:20:56.635Z,21.60
2018-07-10T14:23:27.922Z,21.60
2018-07-10T14:31:18.111Z,21.70
2018-07-10T14:33:49.462Z,21.80
2018-07-10T14:36:28.011Z,21.80
2018-07-10T14:39:11.577Z,21.80
2018-07-10T14:44:15.644Z,21.80
2018-07-10T14:49:31.085Z,21.80
2018-07-10T14:54:56.900Z,21.80
2018-07-10T15:00:13.728Z,21.80
2018-07-10T15:05:31.669Z,21.70
2018-07-10T15:08:07.935Z,21.80
2018-07-10T15:10:46.536Z,21.80
2018-07-10T15:13:26.147Z,21.70
2018-07-10T15:16:12.339Z,21.70
2018-07-10T15:18:49.277Z,21.60
2018-07-10T15:21:22.056Z,21.60
2018-07-10T15:23:52.285Z,21.60
2018-07-10T15:26:28.537Z,21.60
2018-07-10T15:29:10.903Z,21.60
2018-07-10T15:39:41.328Z,21.50
2018-07-10T15:47:55.046Z,21.90
2018-07-10T15:50:35.825Z,21.80
2018-07-10T15:53:09.486Z,21.80
2018-07-10T15:55:47.082Z,21.70
2018-07-10T15:58:22.565Z,21.60
2018-07-10T16:01:06.539Z,21.50
2018-07-10T16:03:43.496Z,21.40
2018-07-10T16:06:15.495Z,21.10
2018-07-10T16:09:01.484Z,20.90
2018-07-10T16:28:11.167Z,19.00
2018-07-10T16:33:37.515Z,18.40
2018-07-10T16:38:46.511Z,18.20
2018-07-10T16:41:26.902Z,18.10
2018-07-10T16:43:59.302Z,18.00
2018-07-10T16:46:30.501Z,17.90
2018-07-10T16:49:03.845Z,17.90
2018-07-10T16:51:45.824Z,17.80
2018-07-10T16:54:30.590Z,17.90
2018-07-10T16:57:00.548Z,17.90
2018-07-10T17:07:30.916Z,17.90
2018-07-10T17:10:13.329Z,17.90
2018-07-10T17:12:47.513Z,17.90
2018-07-10T17:22:18.696Z,18.00
2018-07-10T17:27:55.100Z,18.20
2018-07-10T17:33:20.681Z,18.30
2018-07-10T17:35:55.705Z,18.40
2018-07-10T17:38:33.576Z,18.50
2018-07-10T17:41:22.881Z,18.60
2018-07-10T17:44:01.013Z,18.60
2018-07-10T17:47:09.199Z,18.60
2018-07-10T17:49:45.669Z,18.70
2018-07-10T17:52:21.518Z,18.70
2018-07-10T17:55:02.547Z,18.70
2018-07-10T18:12:15.390Z,18.90
2018-07-10T18:14:55.250Z,19.00
2018-07-10T18:26:06.871Z,19.10
2018-07-10T18:34:52.446Z,19.20
2018-07-10T18:41:28.645Z,19.10
2018-07-10T18:49:51.730Z,18.80
2018-07-10T18:52:27.075Z,18.80
2018-07-10T18:55:00.905Z,18.70
2018-07-10T18:58:06.211Z,18.70
2018-07-10T19:09:42.759Z,18.60
2018-07-10T19:12:13.623Z,18.60
2018-07-10T19:14:45.754Z,18.60
2018-07-10T19:17:24.457Z,18.70
2018-07-10T19:19:57.082Z,18.70
2018-07-10T19:22:34.060Z,18.70
2018-07-10T19:27:54.238Z,18.80
2018-07-10T19:30:38.617Z,18.80
2018-07-10T19:33:07.320Z,18.90
2018-07-10T19:35:48.052Z,18.90
2018-07-10T19:38:30.684Z,19.00
2018-07-10T19:41:01.960Z,19.00
2018-07-10T19:46:24.890Z,18.90
2018-07-10T19:49:02.964Z,18.90
2018-07-10T19:51:43.263Z,19.00
2018-07-10T19:54:21.077Z,18.90
2018-07-10T20:05:06.132Z,19.00
2018-07-10T20:10:41.263Z,19.10
2018-07-10T20:13:26.059Z,19.10
2018-07-10T20:19:02.882Z,19.10
2018-07-10T20:24:28.379Z,19.10
2018-07-10T20:32:03.934Z,19.20
2018-07-10T20:34:49.279Z,19.10
2018-07-10T20:37:42.863Z,19.20
2018-07-10T20:42:57.041Z,19.20
2018-07-10T20:45:31.690Z,19.20
2018-07-10T20:48:11.895Z,19.20
2018-07-10T20:50:59.206Z,19.20
2018-07-10T20:57:10.536Z,19.20
2018-07-10T20:59:45.111Z,19.10
2018-07-10T21:02:30.148Z,19.20
2018-07-10T21:05:13.295Z,19.10
2018-07-10T21:08:25.264Z,19.10
2018-07-10T21:11:05.897Z,19.20
2018-07-10T21:13:57.457Z,19.10
2018-07-10T21:17:18.339Z,19.10
2018-07-10T21:22:10.690Z,19.10
2018-07-10T21:25:04.169Z,19.10
2018-07-10T21:28:03.119Z,19.00
2018-07-10T21:30:39.000Z,19.00
2018-07-10T21:36:05.235Z,19.10
2018-07-10T21:38:42.360Z,19.10
2018-07-10T21:42:28.883Z,19.00
2018-07-10T21:45:14.743Z,19.10
2018-07-10T21:47:56.341Z,19.10
2018-07-10T21:50:32.817Z,19.00
2018-07-10T21:53:04.818Z,19.10
2018-07-10T21:55:34.643Z,19.00
2018-07-10T21:58:04.693Z,19.00
2018-07-10T22:04:25.996Z,19.00
2018-07-10T22:06:56.524Z,19.00
2018-07-10T22:09:30.129Z,19.00
2018-07-10T22:12:01.211Z,19.00
2018-07-10T22:14:30.355Z,19.00
2018-07-10T22:17:21.446Z,19.00
2018-07-10T22:19:51.025Z,19.00
2018-07-10T22:22:21.134Z,19.00
2018-07-10T22:24:51.032Z,19.00
2018-07-10T22:27:20.075Z,19.00
2018-07-10T22:29:57.282Z,19.00
2018-07-10T22:32:32.131Z,19.00
2018-07-10T22:35:01.924Z,19.00
2018-07-10T22:37:30.522Z,18.90
2018-07-10T22:39:59.454Z,18.90
2018-07-10T22:42:30.226Z,18.80
2018-07-10T22:45:01.272Z,18.80
2018-07-10T22:48:02.444Z,18.80
2018-07-10T22:50:31.770Z,18.80
2018-07-10T22:53:03.740Z,18.70
2018-07-10T23:01:13.296Z,18.60
2018-07-10T23:06:21.561Z,18.60
2018-07-10T23:08:50.267Z,18.60
2018-07-10T23:11:19.307Z,18.60
2018-07-10T23:13:49.744Z,18.60
2018-07-10T23:16:19.507Z,18.60
2018-07-10T23:18:48.795Z,18.50
2018-07-10T23:21:19.579Z,18.60
2018-07-10T23:23:53.280Z,18.60
2018-07-10T23:26:23.012Z,18.60
2018-07-10T23:28:52.046Z,18.60
2018-07-10T23:31:25.698Z,18.60
2018-07-10T23:34:15.399Z,18.60
2018-07-10T23:36:57.479Z,18.60
2018-07-10T23:39:38.748Z,18.60
2018-07-10T23:42:17.969Z,18.60
2018-07-10T23:44:48.007Z,18.60
2018-07-10T23:47:34.209Z,18.60
2018-07-10T23:50:14.568Z,18.60
2018-07-10T23:52:51.719Z,18.60
2018-07-10T23:55:20.314Z,18.60
2018-07-10T23:57:49.211Z,18.50
